Time;durP1;ratioP1;P1;durP2;ratioP2;P2;SDS_P1;SDS_P2;PMS_P1;PMS_P2;Temp;Humidity;BMP_temperature;BMP_pressure;BME280_temperature;BME280_humidity;BME280_pressure;Samples;Min_cycle;Max_cycle;Signal;HPM_P1;HPM_P2
2021/11/04 00:00:39;;;;;;;0.50;0.50;;;;;;;;;;5007890;28;20029;-74
2021/11/04 00:03:05;;;;;;;1.77;0.88;;;;;;;;;;5010796;28;20501;-74
2021/11/04 00:05:32;;;;;;;2.97;1.75;;;;;;;;;;5018755;28;20018;-74
2021/11/04 00:08:02;;;;;;;0.85;0.63;;;;;;;;;;5009724;28;20065;-74
2021/11/04 00:10:28;;;;;;;0.93;0.88;;;;;;;;;;5007863;28;20030;-74
2021/11/04 00:12:54;;;;;;;1.70;1.58;;;;;;;;;;5009724;28;20109;-74
2021/11/04 00:15:20;;;;;;;1.40;1.30;;;;;;;;;;5009226;28;20468;-73
2021/11/04 00:17:46;;;;;;;0.65;0.65;;;;;;;;;;5008264;28;20034;-74
2021/11/04 00:20:13;;;;;;;1.63;1.50;;;;;;;;;;5008823;28;20062;-74
2021/11/04 00:22:40;;;;;;;0.40;0.40;;;;;;;;;;5008591;28;20073;-73
2021/11/04 00:25:06;;;;;;;1.38;1.27;;;;;;;;;;5009061;28;20033;-74
2021/11/04 00:27:33;;;;;;;6.28;1.33;;;;;;;;;;5008849;28;20040;-74
2021/11/04 00:29:59;;;;;;;16.98;1.23;;;;;;;;;;5009172;28;20028;-74
2021/11/04 00:32:24;;;;;;;1.17;0.55;;;;;;;;;;5008936;28;20109;-74
2021/11/04 00:34:50;;;;;;;2.72;1.05;;;;;;;;;;5009146;28;20026;-74
2021/11/04 00:37:16;;;;;;;9.43;0.93;;;;;;;;;;5008289;28;20532;-74
2021/11/04 00:39:42;;;;;;;1.20;1.10;;;;;;;;;;5008339;28;20473;-74
2021/11/04 00:42:08;;;;;;;0.82;0.82;;;;;;;;;;5009005;28;20034;-74
2021/11/04 00:44:34;;;;;;;1.40;1.30;;;;;;;;;;5008977;28;20428;-74
2021/11/04 00:47:00;;;;;;;0.57;0.57;;;;;;;;;;5009284;28;20026;-74
2021/11/04 00:49:26;;;;;;;0.85;0.85;;;;;;;;;;5007093;28;20064;-75
2021/11/04 00:51:53;;;;;;;2.58;0.82;;;;;;;;;;5007868;28;20026;-74
2021/11/04 00:54:19;;;;;;;0.85;0.85;;;;;;;;;;5008018;28;20064;-74
2021/11/04 00:56:45;;;;;;;1.10;1.10;;;;;;;;;;5009464;28;20053;-75
2021/11/04 00:59:11;;;;;;;3.45;1.45;;;;;;;;;;5008291;28;20034;-75
2021/11/04 01:01:37;;;;;;;1.95;1.35;;;;;;;;;;5008175;28;20030;-74
2021/11/04 01:04:03;;;;;;;0.60;0.60;;;;;;;;;;5010356;28;20481;-75
2021/11/04 01:06:29;;;;;;;3.00;1.77;;;;;;;;;;5011393;28;20041;-75
2021/11/04 01:08:54;;;;;;;1.55;0.82;;;;;;;;;;5012431;28;20026;-74
2021/11/04 01:11:22;;;;;;;0.80;0.80;;;;;;;;;;5011701;28;20049;-74
2021/11/04 01:13:48;;;;;;;1.20;1.20;;;;;;;;;;5011944;28;20497;-74
2021/11/04 01:16:14;;;;;;;1.00;1.00;;;;;;;;;;5012059;28;20829;-74
2021/11/04 01:18:40;;;;;;;2.10;1.27;;;;;;;;;;5012067;28;20112;-75
2021/11/04 01:21:06;;;;;;;0.98;0.93;;;;;;;;;;5013254;28;20193;-75
2021/11/04 01:23:32;;;;;;;0.80;0.80;;;;;;;;;;5012442;28;20117;-74
2021/11/04 01:25:58;;;;;;;1.63;1.30;;;;;;;;;;5012047;28;20793;-75
2021/11/04 01:28:24;;;;;;;3.42;1.75;;;;;;;;;;5010284;28;20026;-75
2021/11/04 01:30:50;;;;;;;0.88;0.68;;;;;;;;;;5011981;28;20451;-75
2021/11/04 01:33:16;;;;;;;0.55;0.55;;;;;;;;;;5011681;28;20037;-74
2021/11/04 01:35:42;;;;;;;0.25;0.25;;;;;;;;;;5011965;28;20100;-74
2021/11/04 01:38:08;;;;;;;1.23;1.13;;;;;;;;;;5011171;28;20057;-75
2021/11/04 01:40:35;;;;;;;1.27;0.90;;;;;;;;;;5011861;28;20045;-74
2021/11/04 01:43:01;;;;;;;2.05;1.27;;;;;;;;;;5011453;28;20083;-74
2021/11/04 01:45:27;;;;;;;0.43;0.43;;;;;;;;;;5011250;28;20118;-75
2021/11/04 01:47:53;;;;;;;1.75;1.38;;;;;;;;;;5012241;28;20108;-75
2021/11/04 01:50:21;;;;;;;0.38;0.32;;;;;;;;;;5018588;28;20242;-74
2021/11/04 01:52:47;;;;;;;1.95;1.58;;;;;;;;;;5013737;28;20092;-74
2021/11/04 01:55:14;;;;;;;0.28;0.28;;;;;;;;;;5011484;28;20026;-74
2021/11/04 01:57:40;;;;;;;1.27;1.15;;;;;;;;;;5011303;28;20036;-74
2021/11/04 02:00:06;;;;;;;0.80;0.77;;;;;;;;;;5010293;28;20037;-74
2021/11/04 02:02:45;;;;;;;0.88;0.88;;;;;;;;;;5011130;28;20051;-74
2021/11/04 02:05:13;;;;;;;2.65;1.70;;;;;;;;;;5011622;28;20076;-74
2021/11/04 02:07:51;;;;;;;2.05;1.63;;;;;;;;;;5011133;28;20053;-73
2021/11/04 02:10:25;;;;;;;1.27;1.17;;;;;;;;;;5011529;28;20034;-74
2021/11/04 02:12:54;;;;;;;0.80;0.80;;;;;;;;;;5011071;28;20029;-73
2021/11/04 02:15:21;;;;;;;3.35;1.88;;;;;;;;;;5010051;28;20030;-74
2021/11/04 02:17:48;;;;;;;0.40;0.40;;;;;;;;;;5011468;28;20080;-74
2021/11/04 02:20:22;;;;;;;0.57;0.57;;;;;;;;;;5004352;28;20052;-74
2021/11/04 02:23:06;;;;;;;1.75;1.55;;;;;;;;;;5010673;28;20076;-74
2021/11/04 02:25:33;;;;;;;0.55;0.55;;;;;;;;;;5011185;28;20030;-73
2021/11/04 02:28:00;;;;;;;3.13;1.95;;;;;;;;;;5010656;28;20080;-74
2021/11/04 02:30:28;;;;;;;12.40;2.63;;;;;;;;;;5012318;28;20034;-74
2021/11/04 02:32:54;;;;;;;0.30;0.30;;;;;;;;;;5010817;28;20564;-74
2021/11/04 02:35:21;;;;;;;23.13;3.00;;;;;;;;;;5010749;28;20116;-74
2021/11/04 02:37:48;;;;;;;0.57;0.52;;;;;;;;;;5017748;28;20057;-74
2021/11/04 02:40:15;;;;;;;16.48;1.75;;;;;;;;;;5009724;28;20029;-74
2021/11/04 02:42:41;;;;;;;1.13;1.10;;;;;;;;;;5010434;28;20083;-74
2021/11/04 02:45:07;;;;;;;4.60;1.08;;;;;;;;;;5010943;28;20535;-74
2021/11/04 02:47:35;;;;;;;0.82;0.82;;;;;;;;;;5013684;28;20030;-74
2021/11/04 02:50:01;;;;;;;1.95;1.55;;;;;;;;;;5010632;28;20033;-74
2021/11/04 02:52:27;;;;;;;1.30;1.20;;;;;;;;;;5011773;28;20366;-73
2021/11/04 02:54:54;;;;;;;0.82;0.80;;;;;;;;;;5012700;28;20026;-74
2021/11/04 02:57:20;;;;;;;2.53;2.30;;;;;;;;;;5010607;28;20021;-74
2021/11/04 02:59:47;;;;;;;7.95;2.05;;;;;;;;;;5009841;28;20037;-74
2021/11/04 03:02:13;;;;;;;0.63;0.63;;;;;;;;;;5011225;28;20014;-74
2021/11/04 03:04:39;;;;;;;1.98;1.83;;;;;;;;;;5010049;28;20576;-74
2021/11/04 03:07:05;;;;;;;2.63;1.83;;;;;;;;;;5011046;28;20034;-74
2021/11/04 03:09:30;;;;;;;1.55;1.45;;;;;;;;;;5010829;28;20125;-74
2021/11/04 03:11:56;;;;;;;0.50;0.50;;;;;;;;;;5010577;28;20133;-74
2021/11/04 03:14:22;;;;;;;1.98;1.77;;;;;;;;;;5010535;28;20109;-74
2021/11/04 03:16:51;;;;;;;1.17;1.00;;;;;;;;;;5009938;28;20108;-74
2021/11/04 03:19:18;;;;;;;2.13;1.92;;;;;;;;;;5012271;28;20440;-74
2021/11/04 03:21:47;;;;;;;0.68;0.68;;;;;;;;;;5013305;28;20100;-74
2021/11/04 03:24:18;;;;;;;2.28;2.08;;;;;;;;;;5012447;28;20030;-73
2021/11/04 03:26:43;;;;;;;2.30;2.10;;;;;;;;;;5009728;28;20492;-74
2021/11/04 03:29:10;;;;;;;1.30;1.20;;;;;;;;;;5009058;28;20044;-74
2021/11/04 03:31:37;;;;;;;2.35;2.05;;;;;;;;;;5014199;28;20109;-74
2021/11/04 03:34:05;;;;;;;3.67;2.22;;;;;;;;;;5009338;28;20080;-74
2021/11/04 03:36:31;;;;;;;1.20;1.17;;;;;;;;;;5009057;28;20038;-74
2021/11/04 03:38:57;;;;;;;3.63;2.33;;;;;;;;;;5009092;28;20468;-74
2021/11/04 03:41:24;;;;;;;1.75;1.65;;;;;;;;;;5008660;28;20048;-74
2021/11/04 03:43:50;;;;;;;0.77;0.77;;;;;;;;;;5022082;28;20037;-74
2021/11/04 03:46:17;;;;;;;0.85;0.82;;;;;;;;;;5009470;28;20444;-74
2021/11/04 03:48:44;;;;;;;1.88;1.33;;;;;;;;;;5008958;28;20029;-74
2021/11/04 03:51:11;;;;;;;5.35;1.83;;;;;;;;;;5008273;28;20034;-74
2021/11/04 03:53:37;;;;;;;3.00;1.75;;;;;;;;;;5009405;28;20066;-74
2021/11/04 03:56:04;;;;;;;2.58;2.35;;;;;;;;;;5009706;28;20033;-74
2021/11/04 03:58:31;;;;;;;12.38;2.33;;;;;;;;;;5010315;28;20068;-74
2021/11/04 04:00:57;;;;;;;3.00;1.55;;;;;;;;;;5013847;28;20026;-74
2021/11/04 04:03:23;;;;;;;0.88;0.88;;;;;;;;;;5008911;28;20477;-74
2021/11/04 04:06:02;;;;;;;6.28;2.08;;;;;;;;;;5009001;28;20026;-73
2021/11/04 04:08:29;;;;;;;5.88;3.35;;;;;;;;;;5012290;28;20361;-74
2021/11/04 04:10:55;;;;;;;2.05;1.95;;;;;;;;;;5009586;28;20026;-74
2021/11/04 04:13:21;;;;;;;2.88;2.60;;;;;;;;;;5008653;28;20053;-74
2021/11/04 04:15:47;;;;;;;3.30;1.70;;;;;;;;;;5008958;28;20022;-74
2021/11/04 04:18:13;;;;;;;2.55;2.35;;;;;;;;;;5009042;28;20060;-74
2021/11/04 04:20:39;;;;;;;2.35;2.15;;;;;;;;;;5008237;28;20673;-74
2021/11/04 04:23:04;;;;;;;1.85;1.65;;;;;;;;;;5009317;28;20115;-74
2021/11/04 04:25:30;;;;;;;4.22;2.10;;;;;;;;;;5008783;28;20378;-74
2021/11/04 04:27:57;;;;;;;2.00;1.27;;;;;;;;;;5008362;28;20480;-74
2021/11/04 04:30:23;;;;;;;0.73;0.73;;;;;;;;;;5008555;28;20772;-73
2021/11/04 04:32:49;;;;;;;6.65;2.17;;;;;;;;;;5008585;28;20060;-74
2021/11/04 04:35:15;;;;;;;2.28;2.08;;;;;;;;;;5007039;28;20030;-74
2021/11/04 04:37:41;;;;;;;2.08;1.92;;;;;;;;;;5008329;28;20033;-74
2021/11/04 04:40:07;;;;;;;2.72;2.53;;;;;;;;;;5009039;28;20042;-74
2021/11/04 04:42:33;;;;;;;3.28;2.88;;;;;;;;;;5009200;28;20038;-74
2021/11/04 04:44:59;;;;;;;3.67;2.53;;;;;;;;;;5010056;28;20018;-74
2021/11/04 04:47:25;;;;;;;4.32;2.85;;;;;;;;;;5016001;28;20116;-74
2021/11/04 04:49:51;;;;;;;4.28;3.03;;;;;;;;;;5009143;28;20053;-74
2021/11/04 04:52:17;;;;;;;1.88;1.77;;;;;;;;;;5008886;28;20091;-74
2021/11/04 04:54:43;;;;;;;1.05;1.05;;;;;;;;;;5009127;28;20053;-74
2021/11/04 04:57:09;;;;;;;1.20;1.17;;;;;;;;;;5008231;28;20030;-74
2021/11/04 04:59:38;;;;;;;3.30;2.78;;;;;;;;;;5007923;28;20405;-74
2021/11/04 05:02:04;;;;;;;12.90;3.35;;;;;;;;;;5016192;28;20033;-74
2021/11/04 05:04:30;;;;;;;2.05;1.52;;;;;;;;;;5011235;28;20032;-74
2021/11/04 05:06:56;;;;;;;2.47;1.77;;;;;;;;;;5007805;28;20025;-74
2021/11/04 05:09:22;;;;;;;1.58;1.30;;;;;;;;;;5007494;28;20500;-74
2021/11/04 05:11:48;;;;;;;1.77;1.67;;;;;;;;;;5008459;28;20033;-74
2021/11/04 05:14:14;;;;;;;3.10;2.40;;;;;;;;;;5008256;28;20116;-74
2021/11/04 05:16:39;;;;;;;2.92;1.95;;;;;;;;;;5007253;28;20032;-74
2021/11/04 05:19:06;;;;;;;7.43;4.03;;;;;;;;;;5007511;28;20555;-74
2021/11/04 05:21:31;;;;;;;1.27;0.98;;;;;;;;;;5008469;28;20134;-73
2021/11/04 05:23:57;;;;;;;4.50;3.38;;;;;;;;;;5008042;28;20026;-74
2021/11/04 05:26:23;;;;;;;2.75;2.55;;;;;;;;;;5007829;28;20493;-74
2021/11/04 05:28:49;;;;;;;3.17;2.03;;;;;;;;;;5008200;28;20014;-74
2021/11/04 05:31:15;;;;;;;3.83;2.88;;;;;;;;;;5009184;28;20077;-74
2021/11/04 05:33:41;;;;;;;4.13;3.25;;;;;;;;;;5008218;28;20124;-74
2021/11/04 05:36:07;;;;;;;2.60;2.40;;;;;;;;;;5007674;28;20392;-74
2021/11/04 05:38:33;;;;;;;1.80;1.70;;;;;;;;;;5006950;28;20037;-74
2021/11/04 05:40:59;;;;;;;4.13;1.80;;;;;;;;;;5007658;28;20026;-74
2021/11/04 05:43:25;;;;;;;2.05;1.90;;;;;;;;;;5007413;28;20069;-74
2021/11/04 05:45:51;;;;;;;2.53;2.40;;;;;;;;;;5007339;28;20014;-74
2021/11/04 05:48:17;;;;;;;2.88;2.45;;;;;;;;;;5008917;28;20076;-73
2021/11/04 05:50:43;;;;;;;6.55;1.20;;;;;;;;;;5010589;28;20037;-74
2021/11/04 05:53:09;;;;;;;2.22;2.08;;;;;;;;;;5015589;28;20038;-74
2021/11/04 05:55:34;;;;;;;2.08;1.83;;;;;;;;;;5010885;28;20022;-74
2021/11/04 05:58:00;;;;;;;4.95;3.03;;;;;;;;;;5011245;28;20030;-74
2021/11/04 06:00:26;;;;;;;2.05;1.73;;;;;;;;;;5010020;28;20042;-74
2021/11/04 06:02:52;;;;;;;2.70;2.50;;;;;;;;;;5010937;28;20045;-74
2021/11/04 06:05:18;;;;;;;5.00;2.85;;;;;;;;;;5010444;28;20048;-74
2021/11/04 06:07:44;;;;;;;3.28;2.50;;;;;;;;;;5010629;28;20045;-74
2021/11/04 06:10:10;;;;;;;3.85;3.10;;;;;;;;;;5011211;28;20029;-74
2021/11/04 06:12:36;;;;;;;2.05;1.70;;;;;;;;;;5010364;28;20108;-74
2021/11/04 06:15:02;;;;;;;1.17;1.17;;;;;;;;;;5010961;28;20022;-69
2021/11/04 06:17:28;;;;;;;5.70;3.30;;;;;;;;;;5004569;28;20571;-70
2021/11/04 06:19:53;;;;;;;3.00;2.58;;;;;;;;;;5014769;28;20083;-69
2021/11/04 06:22:19;;;;;;;2.10;2.00;;;;;;;;;;5018362;28;20113;-70
2021/11/04 06:24:45;;;;;;;3.47;2.88;;;;;;;;;;5014482;28;20117;-70
2021/11/04 06:27:11;;;;;;;2.80;2.63;;;;;;;;;;5014321;28;20028;-70
2021/11/04 06:29:37;;;;;;;24.92;2.78;;;;;;;;;;5010454;28;20454;-70
2021/11/04 06:32:03;;;;;;;2.95;2.30;;;;;;;;;;5010040;28;20393;-69
2021/11/04 06:34:29;;;;;;;1.38;1.27;;;;;;;;;;5010232;28;20034;-68
2021/11/04 06:36:55;;;;;;;1.92;0.95;;;;;;;;;;5014122;28;20030;-69
2021/11/04 06:39:21;;;;;;;2.42;2.00;;;;;;;;;;5007282;28;20028;-69
2021/11/04 06:41:47;;;;;;;3.50;2.10;;;;;;;;;;5004443;28;20038;-69
2021/11/04 06:44:13;;;;;;;5.20;3.13;;;;;;;;;;5006735;28;20526;-69
2021/11/04 06:46:41;;;;;;;3.20;2.00;;;;;;;;;;5003245;28;20072;-69
2021/11/04 06:49:08;;;;;;;4.70;3.58;;;;;;;;;;5006637;28;20053;-69
2021/11/04 06:51:42;;;;;;;2.40;2.20;;;;;;;;;;5007963;28;20160;-70
2021/11/04 06:54:10;;;;;;;1.83;1.73;;;;;;;;;;5008165;28;20028;-69
2021/11/04 06:56:44;;;;;;;2.95;2.10;;;;;;;;;;5006522;28;20029;-69
2021/11/04 06:59:16;;;;;;;3.65;2.78;;;;;;;;;;5004892;28;20041;-70
2021/11/04 07:01:46;;;;;;;8.75;4.05;;;;;;;;;;5002807;28;20461;-69
2021/11/04 07:04:17;;;;;;;7.38;3.10;;;;;;;;;;5005883;28;20117;-69
2021/11/04 07:06:45;;;;;;;3.08;2.55;;;;;;;;;;5002872;28;20471;-69
2021/11/04 07:09:11;;;;;;;4.47;1.50;;;;;;;;;;5005994;28;20029;-69
2021/11/04 07:11:37;;;;;;;8.48;3.65;;;;;;;;;;5005671;28;20539;-70
2021/11/04 07:14:03;;;;;;;3.47;1.67;;;;;;;;;;5010523;28;20041;-68
2021/11/04 07:16:29;;;;;;;2.22;2.03;;;;;;;;;;5007875;28;20055;-70
2021/11/04 07:18:56;;;;;;;2.85;2.65;;;;;;;;;;5009816;28;20033;-69
2021/11/04 07:21:36;;;;;;;7.78;4.10;;;;;;;;;;5009874;28;20045;-69
2021/11/04 07:24:03;;;;;;;2.75;2.55;;;;;;;;;;5004440;28;20029;-69
2021/11/04 07:26:32;;;;;;;5.47;2.58;;;;;;;;;;5009776;28;20236;-69
2021/11/04 07:28:59;;;;;;;2.88;2.53;;;;;;;;;;5008289;28;20033;-69
2021/11/04 07:31:26;;;;;;;2.45;2.22;;;;;;;;;;5009347;28;20033;-69
2021/11/04 07:33:52;;;;;;;4.45;2.42;;;;;;;;;;5007633;28;20051;-70
2021/11/04 07:36:20;;;;;;;1.60;1.50;;;;;;;;;;5007362;28;20540;-69
2021/11/04 07:38:47;;;;;;;5.57;3.25;;;;;;;;;;5009583;28;20061;-69
2021/11/04 07:41:13;;;;;;;3.40;3.08;;;;;;;;;;5009203;28;20037;-69
2021/11/04 07:43:39;;;;;;;2.75;2.05;;;;;;;;;;5012568;28;20036;-69
2021/11/04 07:46:05;;;;;;;8.10;1.80;;;;;;;;;;5001331;28;20021;-69
2021/11/04 07:48:31;;;;;;;2.67;1.30;;;;;;;;;;5007956;28;20100;-69
2021/11/04 07:50:58;;;;;;;2.03;1.92;;;;;;;;;;5009127;28;20025;-69
2021/11/04 07:53:24;;;;;;;2.83;2.50;;;;;;;;;;5009306;28;20021;-70
2021/11/04 07:55:51;;;;;;;4.53;2.78;;;;;;;;;;5009882;28;20494;-69
2021/11/04 07:58:17;;;;;;;9.80;3.80;;;;;;;;;;5007192;28;21119;-69
2021/11/04 08:00:43;;;;;;;2.13;2.03;;;;;;;;;;5005655;28;20565;-68
2021/11/04 08:03:10;;;;;;;1.88;1.77;;;;;;;;;;5016241;28;20056;-72
2021/11/04 08:05:36;;;;;;;2.65;2.20;;;;;;;;;;5006256;28;20021;-68
2021/11/04 08:08:02;;;;;;;6.18;3.55;;;;;;;;;;5008870;28;20405;-67
2021/11/04 08:10:28;;;;;;;2.42;2.22;;;;;;;;;;5006769;28;20033;-69
2021/11/04 08:12:54;;;;;;;3.95;2.08;;;;;;;;;;5017550;28;20030;-69
2021/11/04 08:15:20;;;;;;;1.75;1.65;;;;;;;;;;5006779;28;20026;-69
2021/11/04 08:17:45;;;;;;;4.32;2.60;;;;;;;;;;5008289;28;20736;-72
2021/11/04 08:20:11;;;;;;;3.50;3.20;;;;;;;;;;5009097;28;20050;-73
2021/11/04 08:22:56;;;;;;;1.25;1.15;;;;;;;;;;5015612;28;20133;-74
2021/11/04 08:25:25;;;;;;;7.78;3.05;;;;;;;;;;5004911;28;20045;-73
2021/11/04 08:27:51;;;;;;;2.67;2.47;;;;;;;;;;5007528;28;20030;-73
2021/11/04 08:30:17;;;;;;;2.35;1.50;;;;;;;;;;5008471;28;20022;-73
2021/11/04 08:32:43;;;;;;;4.50;2.15;;;;;;;;;;5006883;28;20497;-72
2021/11/04 08:35:09;;;;;;;4.63;4.22;;;;;;;;;;5008407;28;20045;-73
2021/11/04 08:37:36;;;;;;;6.43;2.40;;;;;;;;;;5007536;28;20489;-73
2021/11/04 08:40:02;;;;;;;6.25;3.80;;;;;;;;;;5008263;28;20022;-73
2021/11/04 08:42:28;;;;;;;1.92;1.83;;;;;;;;;;5007031;28;20583;-72
2021/11/04 08:44:55;;;;;;;2.30;1.95;;;;;;;;;;5007876;28;20068;-70
2021/11/04 08:47:21;;;;;;;3.75;2.80;;;;;;;;;;5007337;28;20072;-70
2021/11/04 08:49:47;;;;;;;2.75;1.67;;;;;;;;;;4998414;28;20026;-71
2021/11/04 08:52:13;;;;;;;3.25;3.03;;;;;;;;;;5006477;28;20471;-70
2021/11/04 08:54:40;;;;;;;5.03;3.88;;;;;;;;;;5001019;28;20441;-70
2021/11/04 08:57:08;;;;;;;6.30;2.75;;;;;;;;;;5007075;28;20377;-70
2021/11/04 08:59:34;;;;;;;3.90;2.42;;;;;;;;;;5006189;28;20041;-71
2021/11/04 09:02:00;;;;;;;3.20;2.78;;;;;;;;;;5005670;28;20500;-71
2021/11/04 09:04:27;;;;;;;2.88;2.17;;;;;;;;;;5006031;28;20057;-71
2021/11/04 09:06:54;;;;;;;3.20;2.90;;;;;;;;;;5000195;28;20120;-70
2021/11/04 09:09:20;;;;;;;1.70;1.58;;;;;;;;;;5007656;28;20109;-70
2021/11/04 09:11:46;;;;;;;2.60;1.92;;;;;;;;;;5005984;28;20116;-71
2021/11/04 09:14:13;;;;;;;1.73;1.63;;;;;;;;;;5005931;28;20105;-73
2021/11/04 09:16:39;;;;;;;0.82;0.82;;;;;;;;;;5004054;28;20132;-73
2021/11/04 09:19:04;;;;;;;3.85;1.77;;;;;;;;;;5007346;28;20113;-73
2021/11/04 09:21:30;;;;;;;1.85;1.38;;;;;;;;;;5006747;28;20053;-73
2021/11/04 09:23:56;;;;;;;5.47;1.10;;;;;;;;;;5008780;28;20064;-73
2021/11/04 09:26:23;;;;;;;5.68;1.85;;;;;;;;;;5008041;28;20370;-73
2021/11/04 09:28:49;;;;;;;3.38;2.40;;;;;;;;;;5011501;28;20030;-72
2021/11/04 09:31:14;;;;;;;6.30;3.97;;;;;;;;;;5011153;28;20063;-73
2021/11/04 09:33:42;;;;;;;9.20;2.30;;;;;;;;;;5010014;28;20409;-73
2021/11/04 09:36:08;;;;;;;1.15;1.15;;;;;;;;;;5008823;28;20037;-73
2021/11/04 09:38:34;;;;;;;2.25;2.05;;;;;;;;;;5007367;28;20064;-73
2021/11/04 09:41:00;;;;;;;2.72;2.25;;;;;;;;;;5010953;28;20115;-73
2021/11/04 09:43:26;;;;;;;1.27;1.17;;;;;;;;;;5006493;28;20124;-73
2021/11/04 09:45:52;;;;;;;2.47;2.03;;;;;;;;;;5011244;28;20056;-72
2021/11/04 09:48:18;;;;;;;5.50;2.97;;;;;;;;;;5008489;28;20038;-72
2021/11/04 09:50:44;;;;;;;1.08;1.08;;;;;;;;;;5011728;28;20145;-73
2021/11/04 09:53:10;;;;;;;2.00;1.30;;;;;;;;;;5010609;28;20081;-72
2021/11/04 09:55:36;;;;;;;0.32;0.32;;;;;;;;;;5011690;28;20504;-73
2021/11/04 09:58:03;;;;;;;1.40;1.30;;;;;;;;;;5010117;28;20065;-73
2021/11/04 10:00:33;;;;;;;1.23;1.17;;;;;;;;;;5011143;28;20030;-73
2021/11/04 10:03:09;;;;;;;6.13;2.57;;;;;;;;;;5007903;28;20030;-73
2021/11/04 10:05:49;;;;;;;2.13;1.50;;;;;;;;;;5003085;28;20029;-73
2021/11/04 10:08:16;;;;;;;1.17;1.13;;;;;;;;;;5001689;28;20508;-72
2021/11/04 10:10:43;;;;;;;1.27;1.17;;;;;;;;;;5006360;28;20026;-73
2021/11/04 10:13:10;;;;;;;0.90;0.90;;;;;;;;;;5007272;28;20034;-73
2021/11/04 10:15:36;;;;;;;0.95;0.77;;;;;;;;;;5007795;28;20026;-73
2021/11/04 10:18:14;;;;;;;5.75;1.27;;;;;;;;;;5007859;28;20081;-73
2021/11/04 10:20:41;;;;;;;1.27;0.77;;;;;;;;;;5009487;28;20050;-73
2021/11/04 10:23:08;;;;;;;1.98;1.88;;;;;;;;;;5006848;28;20038;-72
2021/11/04 10:25:34;;;;;;;1.40;1.30;;;;;;;;;;5007703;28;20388;-73
2021/11/04 10:28:01;;;;;;;0.68;0.63;;;;;;;;;;5005051;28;20474;-73
2021/11/04 10:30:36;;;;;;;2.65;1.73;;;;;;;;;;5006444;28;20246;-73
2021/11/04 10:33:17;;;;;;;1.80;1.13;;;;;;;;;;5007140;28;20034;-73
2021/11/04 10:35:43;;;;;;;1.67;1.58;;;;;;;;;;5005774;28;20030;-73
2021/11/04 10:38:09;;;;;;;3.60;0.90;;;;;;;;;;5009340;28;20122;-73
2021/11/04 10:40:35;;;;;;;0.20;0.20;;;;;;;;;;5007778;28;20398;-72
2021/11/04 10:43:00;;;;;;;5.13;2.75;;;;;;;;;;5006738;28;20030;-72
2021/11/04 10:45:28;;;;;;;1.75;1.65;;;;;;;;;;5005665;28;20029;-74
2021/11/04 10:48:13;;;;;;;5.97;1.60;;;;;;;;;;5008923;28;20053;-72
2021/11/04 10:50:39;;;;;;;2.65;1.85;;;;;;;;;;5007890;28;20026;-73
2021/11/04 10:53:07;;;;;;;1.25;1.15;;;;;;;;;;5009262;28;20092;-74
2021/11/04 10:55:33;;;;;;;1.48;1.38;;;;;;;;;;5009410;28;20037;-75
2021/11/04 10:58:05;;;;;;;0.50;0.43;;;;;;;;;;5006873;28;20033;-72
2021/11/04 11:00:31;;;;;;;1.08;0.98;;;;;;;;;;5009215;28;20742;-73
2021/11/04 11:02:57;;;;;;;1.27;0.50;;;;;;;;;;5005500;28;20034;-73
2021/11/04 11:05:27;;;;;;;1.05;0.95;;;;;;;;;;5008345;28;20018;-73
2021/11/04 11:07:54;;;;;;;0.40;0.40;;;;;;;;;;5003581;28;20034;-72
2021/11/04 11:10:20;;;;;;;0.55;0.55;;;;;;;;;;5009884;28;20026;-73
2021/11/04 11:12:46;;;;;;;0.65;0.65;;;;;;;;;;5004000;28;20030;-73
2021/11/04 11:15:12;;;;;;;1.45;0.93;;;;;;;;;;5004467;28;20026;-72
2021/11/04 11:17:43;;;;;;;1.02;0.98;;;;;;;;;;5006569;28;20371;-72
2021/11/04 11:20:10;;;;;;;0.05;0.05;;;;;;;;;;5006194;28;20046;-72
2021/11/04 11:22:38;;;;;;;0.98;0.73;;;;;;;;;;5007799;28;20032;-73
2021/11/04 11:25:05;;;;;;;1.73;1.55;;;;;;;;;;5008258;28;20029;-73
2021/11/04 11:27:31;;;;;;;0.88;0.85;;;;;;;;;;5008779;28;20022;-72
2021/11/04 11:29:58;;;;;;;0.45;0.45;;;;;;;;;;5007961;28;20032;-72
2021/11/04 11:32:27;;;;;;;1.45;1.02;;;;;;;;;;5008515;28;20037;-73
2021/11/04 11:35:14;;;;;;;0.32;0.32;;;;;;;;;;5009188;28;20026;-73
2021/11/04 11:38:00;;;;;;;0.90;0.90;;;;;;;;;;5008571;28;20040;-72
2021/11/04 11:40:27;;;;;;;0.40;0.40;;;;;;;;;;5005450;28;20040;-73
2021/11/04 11:42:55;;;;;;;0.80;0.80;;;;;;;;;;5003544;28;20054;-73
2021/11/04 11:45:21;;;;;;;0.88;0.88;;;;;;;;;;5004704;28;20076;-74
2021/11/04 11:47:47;;;;;;;0.32;0.17;;;;;;;;;;5008239;28;20337;-73
2021/11/04 11:50:22;;;;;;;0.35;0.35;;;;;;;;;;5008480;28;20200;-73
2021/11/04 11:53:41;;;;;;;1.02;0.90;;;;;;;;;;5008183;28;20022;-74
2021/11/04 11:56:01;;;;;;;0.15;0.15;;;;;;;;;;5009460;28;20098;-74
2021/11/04 11:58:31;;;;;;;0.22;0.22;;;;;;;;;;5009651;28;20022;-74
2021/11/04 12:01:01;;;;;;;0.40;0.32;;;;;;;;;;5009428;28;20021;-74
2021/11/04 12:03:37;;;;;;;0.10;0.10;;;;;;;;;;5009285;28;20033;-73
2021/11/04 12:06:04;;;;;;;0.10;0.10;;;;;;;;;;5009098;28;20038;-73
2021/11/04 12:08:30;;;;;;;0.30;0.30;;;;;;;;;;5009119;28;20076;-74
2021/11/04 12:10:56;;;;;;;4.10;0.63;;;;;;;;;;5008702;28;20104;-73
2021/11/04 12:13:32;;;;;;;0.90;0.63;;;;;;;;;;5009183;28;20084;-74
2021/11/04 12:16:08;;;;;;;0.50;0.50;;;;;;;;;;5008309;28;20037;-73
2021/11/04 12:18:36;;;;;;;0.40;0.40;;;;;;;;;;5008805;28;20025;-73
2021/11/04 12:21:02;;;;;;;0.55;0.32;;;;;;;;;;5008442;28;20046;-73
2021/11/04 12:23:35;;;;;;;0.50;0.50;;;;;;;;;;5008761;28;20025;-73
2021/11/04 12:26:03;;;;;;;0.82;0.60;;;;;;;;;;5008220;28;20049;-73
2021/11/04 12:28:41;;;;;;;0.45;0.45;;;;;;;;;;5023264;28;20022;-73
2021/11/04 12:31:17;;;;;;;0.30;0.30;;;;;;;;;;4997106;28;20053;-74
2021/11/04 12:33:43;;;;;;;0.45;0.45;;;;;;;;;;5008212;28;20435;-74
2021/11/04 12:36:09;;;;;;;0.15;0.15;;;;;;;;;;5007629;28;20051;-73
2021/11/04 12:38:44;;;;;;;0.22;0.22;;;;;;;;;;5008032;28;20036;-73
2021/11/04 12:41:11;;;;;;;0.57;0.45;;;;;;;;;;5008645;28;20108;-73
2021/11/04 12:43:41;;;;;;;0.45;0.45;;;;;;;;;;5008189;28;20473;-74
2021/11/04 12:46:19;;;;;;;0.30;0.30;;;;;;;;;;5008076;28;20053;-74
2021/11/04 12:49:03;;;;;;;0.50;0.50;;;;;;;;;;5010503;28;20038;-73
2021/11/04 12:51:43;;;;;;;2.22;1.02;;;;;;;;;;5003438;28;20489;-74
2021/11/04 12:54:10;;;;;;;2.35;1.45;;;;;;;;;;5005544;28;20480;-72
2021/11/04 12:56:55;;;;;;;3.30;1.55;;;;;;;;;;5008237;28;20038;-73
2021/11/04 12:59:33;;;;;;;0.25;0.17;;;;;;;;;;5007349;28;20077;-73
2021/11/04 13:02:07;;;;;;;0.35;0.35;;;;;;;;;;5008924;28;20038;-73
2021/11/04 13:04:34;;;;;;;1.85;0.50;;;;;;;;;;5009012;28;20056;-73
2021/11/04 13:07:01;;;;;;;0.47;0.47;;;;;;;;;;5008161;28;20034;-74
2021/11/04 13:09:27;;;;;;;0.00;0.00;;;;;;;;;;5007557;28;20097;-73
2021/11/04 13:12:02;;;;;;;0.22;0.22;;;;;;;;;;5008066;28;20034;-73
2021/11/04 13:14:32;;;;;;;0.63;0.20;;;;;;;;;;5007552;28;20066;-73
2021/11/04 13:16:58;;;;;;;0.57;0.47;;;;;;;;;;5008408;28;20026;-74
2021/11/04 13:19:39;;;;;;;0.65;0.65;;;;;;;;;;5008370;28;20495;-74
2021/11/04 13:22:06;;;;;;;;;;;;;;;;;;5009218;28;20515;-73
2021/11/04 13:24:33;;;;;;;0.22;0.22;;;;;;;;;;5009003;28;19916;-73
2021/11/04 13:26:59;;;;;;;1.20;0.65;;;;;;;;;;5006927;28;20038;-70
2021/11/04 13:29:24;;;;;;;0.50;0.50;;;;;;;;;;5008083;28;20500;-70
2021/11/04 13:31:50;;;;;;;0.17;0.17;;;;;;;;;;5007957;28;20034;-70
2021/11/04 13:34:19;;;;;;;0.38;0.38;;;;;;;;;;5008342;28;20030;-70
2021/11/04 13:36:48;;;;;;;0.25;0.25;;;;;;;;;;5007171;28;20069;-71
2021/11/04 13:39:17;;;;;;;0.08;0.08;;;;;;;;;;5005576;28;20038;-73
2021/11/04 13:41:47;;;;;;;0.85;0.28;;;;;;;;;;5005068;28;20045;-73
2021/11/04 13:44:32;;;;;;;0.20;0.20;;;;;;;;;;5007373;28;20026;-72
2021/11/04 13:46:58;;;;;;;0.30;0.30;;;;;;;;;;5010168;28;20109;-72
2021/11/04 13:49:24;;;;;;;0.55;0.55;;;;;;;;;;5010806;28;20085;-72
2021/11/04 13:51:55;;;;;;;1.15;0.57;;;;;;;;;;5007788;28;20172;-72
2021/11/04 13:54:32;;;;;;;0.20;0.20;;;;;;;;;;5013082;28;20030;-73
2021/11/04 13:56:58;;;;;;;0.25;0.25;;;;;;;;;;5005192;28;20065;-72
2021/11/04 13:59:31;;;;;;;0.03;0.03;;;;;;;;;;5006620;28;20045;-74
2021/11/04 14:01:57;;;;;;;0.20;0.20;;;;;;;;;;5003329;28;20118;-72
2021/11/04 14:04:23;;;;;;;0.57;0.55;;;;;;;;;;5011804;28;20088;-73
2021/11/04 14:06:51;;;;;;;3.95;1.08;;;;;;;;;;5014356;28;20018;-73
2021/11/04 14:09:25;;;;;;;0.43;0.43;;;;;;;;;;5012283;28;20057;-73
2021/11/04 14:12:01;;;;;;;0.55;0.30;;;;;;;;;;5019891;28;20080;-74
2021/11/04 14:14:27;;;;;;;0.60;0.20;;;;;;;;;;5014942;28;20099;-83
2021/11/04 14:17:03;;;;;;;0.00;0.00;;;;;;;;;;5016583;28;20472;-73
2021/11/04 14:19:29;;;;;;;0.40;0.30;;;;;;;;;;5010362;28;20429;-74
2021/11/04 14:21:55;;;;;;;0.20;0.20;;;;;;;;;;5012034;28;20081;-73
2021/11/04 14:24:21;;;;;;;0.32;0.32;;;;;;;;;;5012213;28;20476;-68
2021/11/04 14:26:47;;;;;;;0.10;0.10;;;;;;;;;;5015258;28;20040;-69
2021/11/04 14:29:12;;;;;;;0.20;0.20;;;;;;;;;;5011024;28;20029;-70
2021/11/04 14:31:45;;;;;;;0.45;0.45;;;;;;;;;;5014558;28;20761;-77
2021/11/04 14:34:11;;;;;;;0.20;0.20;;;;;;;;;;5010048;28;20127;-72
2021/11/04 14:36:37;;;;;;;2.05;1.30;;;;;;;;;;5011819;28;20519;-72
2021/11/04 14:39:04;;;;;;;0.52;0.52;;;;;;;;;;5009849;28;20034;-72
2021/11/04 14:41:30;;;;;;;2.05;0.70;;;;;;;;;;5004549;28;20116;-71
2021/11/04 14:43:56;;;;;;;0.13;0.13;;;;;;;;;;5007286;28;20561;-72
2021/11/04 14:46:22;;;;;;;0.70;0.45;;;;;;;;;;5008215;28;20116;-71